Pensacola NAS, Florida
Current Conditions -  °F | °C
As of 2:56 AM on Friday 28 Nov 2014 (Local Time) from KNPA Reporting Station
Clear Clear  
Wind Chill: 33°   Ceiling: Unl
Heat Index: 38°   Visibility: 10mi
Dew Point: 31°   Wind: 7mph
Humidity: 76%   Direction: 10°N
Pressure: 30.41"   Gusts: NA
Location:  30.35°N, 87.32°W
Report Text: KNPA 280856Z AUTO 01006KT 10SM CLR 03/M01 A3041 RMK AO2 SLP298 T00331006 55002 $
Loading
Personal Weather Stations






























Interactive Weather Map New forecast layout! Learn more

10-Day Weather Forecast

Advertisements
Track Severe Weather on mobile